Las Varillas, Argentina
Current Conditions -  °F | °C
As of 10:00 AM on Monday 20 Oct 2014 (Local Time) from SACO Reporting Station
Clear Clear  
Wind Chill: 70°   Ceiling: Unl
Heat Index: 70°   Visibility: 6mi
Dew Point: 41°   Wind: 14mph
Humidity: 35%   Direction: 20°NNE
Pressure: 30.21"   Gusts: NA
Location:  31.87°S, 62.72°W
Report Text: SACO 201300Z 02012KT CAVOK 21/05 Q1023
Loading
Personal Weather Stations






























Interactive Weather Map
Tropical Storm Tracking
New forecast layout! Learn more

10-Day Weather Forecast

Advertisements
Track Severe Weather on mobile